createdAt,value
2022-08-22T00:02:19.383Z,18.04
2022-08-22T00:02:45.175Z,18.68
2022-08-22T00:02:58.816Z,18.22
2022-08-22T00:03:06.867Z,18.16
2022-08-22T00:05:37.431Z,17.98
2022-08-22T00:08:57.868Z,18.12
2022-08-22T00:12:13.340Z,18.05
2022-08-22T00:15:42.475Z,18.09
2022-08-22T00:19:12.261Z,18.16
2022-08-22T00:22:21.847Z,18.12
2022-08-22T00:25:40.326Z,18.19
2022-08-22T00:28:50.320Z,18.28
2022-08-22T00:32:10.295Z,18.21
2022-08-22T00:35:29.941Z,18.21
2022-08-22T00:38:41.202Z,18.26
2022-08-22T00:42:08.975Z,18.26
2022-08-22T00:45:33.820Z,18.34
2022-08-22T00:48:38.895Z,18.37
2022-08-22T00:52:21.787Z,18.37
2022-08-22T00:55:41.283Z,18.42
2022-08-22T00:59:18.026Z,18.30
2022-08-22T01:02:32.240Z,18.34
2022-08-22T01:05:55.071Z,18.28
2022-08-22T01:09:26.888Z,18.32
2022-08-22T01:13:00.077Z,18.38
2022-08-22T01:16:36.156Z,18.49
2022-08-22T01:20:00.415Z,18.51
2022-08-22T01:23:21.665Z,18.49
2022-08-22T01:27:01.924Z,18.54
2022-08-22T01:30:52.160Z,18.48
2022-08-22T01:34:13.472Z,18.35
2022-08-22T01:37:43.997Z,18.31
2022-08-22T01:41:03.219Z,18.25
2022-08-22T01:44:28.731Z,18.31
2022-08-22T01:47:46.085Z,18.36
2022-08-22T01:50:55.355Z,18.30
2022-08-22T01:54:07.646Z,18.31
2022-08-22T01:57:10.277Z,18.23
2022-08-22T02:00:19.282Z,18.18
2022-08-22T02:03:56.938Z,18.23
2022-08-22T02:07:11.678Z,18.16
2022-08-22T02:10:42.601Z,18.22
2022-08-22T02:13:46.327Z,18.15
2022-08-22T02:16:57.339Z,18.16
2022-08-22T02:20:11.873Z,18.20
2022-08-22T02:23:19.508Z,18.13
2022-08-22T02:26:27.894Z,18.18
2022-08-22T02:29:40.296Z,18.15
2022-08-22T02:32:42.342Z,18.27
2022-08-22T02:36:00.266Z,18.24
2022-08-22T02:39:19.433Z,18.24
2022-08-22T02:42:21.771Z,18.16
2022-08-22T02:45:48.029Z,18.14
2022-08-22T02:49:04.566Z,18.18
2022-08-22T02:52:18.605Z,18.08
2022-08-22T02:55:35.922Z,18.09
2022-08-22T02:59:07.326Z,18.13
2022-08-22T03:02:26.131Z,18.24
2022-08-22T03:05:30.219Z,18.15
2022-08-22T03:08:37.944Z,18.03
2022-08-22T03:12:17.350Z,17.95
2022-08-22T03:15:23.016Z,17.91
2022-08-22T03:19:02.122Z,17.96
2022-08-22T03:22:11.638Z,18.03
2022-08-22T03:25:35.283Z,18.06
2022-08-22T03:28:59.137Z,18.14
2022-08-22T03:32:19.271Z,18.12
2022-08-22T03:35:49.588Z,18.22
2022-08-22T03:39:07.248Z,18.25
2022-08-22T03:42:39.264Z,18.21
2022-08-22T03:46:19.005Z,18.28
2022-08-22T03:49:39.443Z,18.29
2022-08-22T03:53:10.418Z,18.34
2022-08-22T03:56:54.062Z,18.38
2022-08-22T04:01:07.226Z,19.37
2022-08-22T04:04:38.657Z,19.37
2022-08-22T04:07:59.121Z,18.91
2022-08-22T04:11:31.370Z,18.97
2022-08-22T04:14:48.563Z,18.94
2022-08-22T04:18:21.929Z,18.76
2022-08-22T04:21:44.209Z,18.97
2022-08-22T04:25:08.499Z,18.98
2022-08-22T04:28:22.012Z,19.10
2022-08-22T04:31:34.577Z,19.17
2022-08-22T04:34:51.626Z,19.06
2022-08-22T04:38:03.217Z,19.28
2022-08-22T04:41:11.391Z,19.29
2022-08-22T04:44:22.495Z,19.20
2022-08-22T04:47:39.018Z,19.21
2022-08-22T04:50:52.036Z,19.34
2022-08-22T04:54:09.041Z,19.37
2022-08-22T04:57:21.066Z,19.31
2022-08-22T05:00:24.036Z,19.44
2022-08-22T05:03:33.483Z,19.49
2022-08-22T05:06:41.616Z,19.56
2022-08-22T05:09:56.414Z,19.43
2022-08-22T05:13:06.183Z,19.61
2022-08-22T05:16:15.774Z,19.66
2022-08-22T05:19:32.286Z,19.72
2022-08-22T05:22:44.277Z,19.73
2022-08-22T05:25:51.835Z,19.84
2022-08-22T05:29:03.326Z,19.96
2022-08-22T05:32:20.116Z,20.10
2022-08-22T05:35:36.121Z,20.36
2022-08-22T05:38:54.671Z,20.54
2022-08-22T05:42:00.850Z,20.63
2022-08-22T05:45:11.485Z,20.85
2022-08-22T05:48:21.802Z,20.86
2022-08-22T05:51:36.755Z,20.91
2022-08-22T05:54:51.955Z,20.99
2022-08-22T05:58:06.264Z,21.05
2022-08-22T06:01:34.286Z,21.56
2022-08-22T06:04:51.233Z,21.73
2022-08-22T06:08:14.099Z,21.44
2022-08-22T06:11:33.587Z,21.46
2022-08-22T06:14:50.455Z,21.58
2022-08-22T06:17:59.849Z,21.60
2022-08-22T06:21:04.319Z,21.43
2022-08-22T06:24:13.098Z,21.41
2022-08-22T06:27:20.033Z,21.67
2022-08-22T06:30:28.171Z,22.01
2022-08-22T06:33:36.106Z,22.33
2022-08-22T06:36:41.654Z,22.46
2022-08-22T06:39:49.318Z,22.47
2022-08-22T06:42:54.304Z,22.06
2022-08-22T06:45:56.585Z,21.92
2022-08-22T06:49:01.526Z,22.37
2022-08-22T06:52:08.311Z,23.64
2022-08-22T06:55:11.185Z,24.56
2022-08-22T06:58:18.697Z,25.00
2022-08-22T07:01:25.941Z,25.76
2022-08-22T07:04:28.966Z,25.65
2022-08-22T07:07:31.469Z,25.66
2022-08-22T07:10:33.889Z,25.22
2022-08-22T07:13:39.350Z,24.17
2022-08-22T07:16:50.454Z,24.22
2022-08-22T07:20:18.963Z,24.80
2022-08-22T07:23:31.695Z,25.10
2022-08-22T07:26:49.838Z,24.46
2022-08-22T07:30:13.052Z,23.94
2022-08-22T07:33:27.012Z,23.72
2022-08-22T07:36:55.484Z,23.39
2022-08-22T07:40:16.612Z,23.57
2022-08-22T07:43:41.111Z,23.64
2022-08-22T07:47:03.989Z,23.47
2022-08-22T07:50:13.160Z,22.71
2022-08-22T07:53:26.564Z,22.21
2022-08-22T07:56:33.861Z,22.36
2022-08-22T07:59:39.915Z,22.26
2022-08-22T08:02:54.467Z,22.23
2022-08-22T08:05:57.848Z,22.19
2022-08-22T08:09:01.356Z,21.98
2022-08-22T08:12:05.965Z,21.73
2022-08-22T08:15:14.850Z,21.56
2022-08-22T08:18:22.011Z,21.38
2022-08-22T08:21:33.200Z,21.28
2022-08-22T08:24:40.634Z,21.07
2022-08-22T08:28:05.115Z,21.22
2022-08-22T08:31:27.445Z,21.37
2022-08-22T08:34:32.415Z,21.76
2022-08-22T08:37:52.290Z,22.17
2022-08-22T08:41:26.821Z,21.97
2022-08-22T08:44:57.004Z,22.06
2022-08-22T08:48:35.259Z,22.15
2022-08-22T08:52:08.279Z,22.87
2022-08-22T08:55:42.425Z,23.44
2022-08-22T08:59:03.858Z,23.69
2022-08-22T09:02:34.912Z,23.69
2022-08-22T09:06:02.331Z,23.55
2022-08-22T09:09:23.330Z,23.57
2022-08-22T09:13:11.942Z,24.01
2022-08-22T09:16:46.180Z,24.71
2022-08-22T09:20:17.557Z,24.40
2022-08-22T09:23:31.096Z,25.06
2022-08-22T09:26:50.891Z,25.89
2022-08-22T09:30:00.187Z,25.48
2022-08-22T09:33:07.635Z,25.23
2022-08-22T09:36:21.622Z,25.04
2022-08-22T09:39:34.868Z,24.93
2022-08-22T09:43:07.054Z,24.63
2022-08-22T09:46:21.903Z,24.75
2022-08-22T09:50:04.077Z,24.46
2022-08-22T09:53:13.871Z,24.00
2022-08-22T09:56:26.119Z,23.49
2022-08-22T09:59:44.730Z,23.01
2022-08-22T10:02:59.364Z,22.02
2022-08-22T10:06:16.466Z,21.64
2022-08-22T10:09:48.166Z,21.78
2022-08-22T10:13:10.530Z,21.70
2022-08-22T10:16:39.089Z,22.13
2022-08-22T10:19:51.544Z,22.55
2022-08-22T10:23:14.778Z,23.50
2022-08-22T10:26:43.008Z,23.52
2022-08-22T10:30:08.033Z,23.85
2022-08-22T10:33:33.738Z,24.04
2022-08-22T10:36:47.975Z,24.22
2022-08-22T10:40:02.538Z,24.31
2022-08-22T10:43:15.970Z,24.68
2022-08-22T10:46:37.096Z,25.30
2022-08-22T10:49:53.982Z,25.73
2022-08-22T10:53:29.476Z,26.25
2022-08-22T10:56:46.735Z,26.29
2022-08-22T10:59:52.204Z,26.84
2022-08-22T11:03:11.000Z,27.15
2022-08-22T11:06:27.902Z,28.18
2022-08-22T11:09:59.871Z,27.76
2022-08-22T11:13:19.367Z,27.58
2022-08-22T11:17:02.866Z,26.95
2022-08-22T11:20:36.335Z,25.85
2022-08-22T11:24:34.564Z,26.22
2022-08-22T11:28:09.920Z,26.10
2022-08-22T11:31:36.948Z,26.05
2022-08-22T11:34:42.249Z,26.97
2022-08-22T11:38:03.031Z,28.19
2022-08-22T11:41:15.274Z,28.95
2022-08-22T11:44:27.515Z,29.25
2022-08-22T11:47:36.169Z,30.41
2022-08-22T11:50:55.543Z,31.43
2022-08-22T11:54:31.007Z,32.00
2022-08-22T11:57:35.562Z,31.02
2022-08-22T12:00:58.262Z,30.99
2022-08-22T12:04:04.130Z,30.42
2022-08-22T12:07:15.599Z,29.52
2022-08-22T12:10:25.515Z,30.15
2022-08-22T12:13:49.288Z,31.24
2022-08-22T12:17:51.146Z,31.58
2022-08-22T12:21:12.787Z,30.81
2022-08-22T12:24:26.674Z,30.30
2022-08-22T12:27:55.517Z,29.50
2022-08-22T12:31:09.679Z,28.94
2022-08-22T12:34:22.419Z,28.76
2022-08-22T12:37:52.089Z,28.73
2022-08-22T12:41:08.021Z,28.10
2022-08-22T12:44:34.107Z,27.19
2022-08-22T12:47:51.482Z,26.71
2022-08-22T12:51:01.948Z,26.53
2022-08-22T12:54:36.073Z,26.07
2022-08-22T12:57:45.208Z,25.91
2022-08-22T13:00:59.264Z,25.68
2022-08-22T13:04:08.299Z,25.39
2022-08-22T13:07:34.247Z,25.34
2022-08-22T13:10:52.283Z,25.77
2022-08-22T13:13:58.965Z,25.99
2022-08-22T13:17:23.748Z,26.62
2022-08-22T13:20:30.734Z,27.05
2022-08-22T13:23:50.740Z,27.17
2022-08-22T13:27:05.768Z,27.29
2022-08-22T13:30:16.707Z,27.12
2022-08-22T13:33:38.955Z,27.56
2022-08-22T13:36:51.881Z,27.58
2022-08-22T13:40:01.897Z,27.66
2022-08-22T13:43:10.002Z,27.15
2022-08-22T13:46:12.455Z,27.30
2022-08-22T13:49:31.673Z,26.85
2022-08-22T13:52:42.716Z,26.61
2022-08-22T13:55:55.382Z,26.73
2022-08-22T13:59:03.476Z,26.64
2022-08-22T14:02:18.116Z,26.46
2022-08-22T14:05:42.379Z,25.90
2022-08-22T14:08:46.144Z,25.67
2022-08-22T14:11:59.642Z,25.79
2022-08-22T14:15:06.372Z,25.59
2022-08-22T14:18:13.885Z,25.32
2022-08-22T14:21:41.426Z,24.99
2022-08-22T14:24:55.748Z,25.02
2022-08-22T14:28:09.582Z,24.85
2022-08-22T14:31:14.323Z,24.61
2022-08-22T14:34:17.217Z,24.51
2022-08-22T14:37:40.086Z,24.40
2022-08-22T14:40:44.605Z,23.95
2022-08-22T14:44:19.072Z,23.33
2022-08-22T14:48:29.595Z,23.06
2022-08-22T14:51:25.662Z,22.86
2022-08-22T14:54:29.368Z,22.61
2022-08-22T14:57:35.771Z,22.40
2022-08-22T15:00:45.867Z,22.25
2022-08-22T15:03:59.205Z,22.23
2022-08-22T15:07:02.324Z,22.55
2022-08-22T15:10:22.181Z,22.81
2022-08-22T15:13:25.191Z,23.15
2022-08-22T15:16:36.757Z,23.16
2022-08-22T15:19:47.239Z,23.10
2022-08-22T15:22:58.107Z,22.94
2022-08-22T15:26:23.713Z,23.19
2022-08-22T15:29:30.969Z,23.24
2022-08-22T15:32:41.686Z,23.07
2022-08-22T15:35:45.598Z,23.20
2022-08-22T15:38:52.750Z,23.12
2022-08-22T15:41:56.142Z,23.12
2022-08-22T15:45:00.791Z,23.20
2022-08-22T15:48:08.966Z,22.92
2022-08-22T15:51:13.612Z,22.77
2022-08-22T15:54:25.044Z,22.65
2022-08-22T15:57:41.661Z,22.63
2022-08-22T16:01:02.640Z,22.73
2022-08-22T16:04:12.655Z,22.62
2022-08-22T16:07:23.671Z,22.36
2022-08-22T16:10:26.067Z,22.21
2022-08-22T16:13:33.582Z,22.13
2022-08-22T16:16:45.185Z,22.22
2022-08-22T16:19:47.389Z,22.21
2022-08-22T16:22:58.982Z,22.04
2022-08-22T16:26:03.955Z,22.07
2022-08-22T16:29:19.388Z,22.22
2022-08-22T16:32:28.173Z,22.23
2022-08-22T16:36:16.312Z,22.08
2022-08-22T16:39:21.507Z,22.11
2022-08-22T16:42:46.653Z,22.10
2022-08-22T16:45:49.117Z,22.03
2022-08-22T16:49:01.134Z,21.82
2022-08-22T16:52:22.233Z,21.70
2022-08-22T16:55:30.799Z,21.55
2022-08-22T16:59:19.321Z,21.41
2022-08-22T17:02:54.394Z,21.43
2022-08-22T17:06:36.468Z,21.28
2022-08-22T17:09:53.831Z,21.32
2022-08-22T17:13:20.209Z,21.23
2022-08-22T17:16:29.036Z,21.28
2022-08-22T17:19:39.352Z,21.17
2022-08-22T17:23:20.844Z,21.26
2022-08-22T17:26:41.934Z,21.11
2022-08-22T17:30:00.484Z,20.99
2022-08-22T17:33:16.970Z,20.81
2022-08-22T17:36:34.206Z,20.61
2022-08-22T17:39:55.942Z,20.52
2022-08-22T17:43:18.150Z,20.44
2022-08-22T17:46:52.465Z,20.40
2022-08-22T17:50:05.470Z,20.30
2022-08-22T17:53:16.329Z,20.30
2022-08-22T17:56:26.262Z,20.26
2022-08-22T17:59:50.278Z,20.16
2022-08-22T18:03:08.357Z,20.14
2022-08-22T18:06:21.586Z,20.16
2022-08-22T18:09:39.268Z,20.12
2022-08-22T18:12:54.274Z,20.06
2022-08-22T18:16:01.455Z,20.03
2022-08-22T18:19:14.065Z,20.13
2022-08-22T18:22:25.922Z,20.12
2022-08-22T18:25:44.230Z,20.16
2022-08-22T18:28:59.119Z,20.16
2022-08-22T18:32:18.622Z,20.12
2022-08-22T18:35:31.433Z,20.11
2022-08-22T18:38:54.143Z,20.17
2022-08-22T18:42:09.471Z,20.15
2022-08-22T18:45:43.756Z,20.19
2022-08-22T18:49:13.614Z,20.16
2022-08-22T18:52:09.272Z,20.13
2022-08-22T18:55:54.028Z,20.17
2022-08-22T18:59:20.073Z,20.08
2022-08-22T19:02:51.124Z,20.07
2022-08-22T19:06:19.378Z,20.05
2022-08-22T19:09:43.023Z,19.95
2022-08-22T19:13:04.140Z,19.92
2022-08-22T19:16:28.033Z,19.90
2022-08-22T19:19:58.282Z,19.92
2022-08-22T19:23:43.613Z,19.93
2022-08-22T19:27:09.935Z,19.92
2022-08-22T19:30:31.328Z,19.96
2022-08-22T19:33:41.752Z,19.94
2022-08-22T19:36:45.588Z,19.95
2022-08-22T19:39:57.343Z,19.97
2022-08-22T19:43:01.091Z,19.88
2022-08-22T19:46:07.601Z,19.88
2022-08-22T19:49:36.569Z,19.87
2022-08-22T19:53:00.528Z,19.84
2022-08-22T19:56:12.709Z,19.81
2022-08-22T19:59:46.780Z,19.79
2022-08-22T20:02:56.435Z,19.70
2022-08-22T20:06:33.703Z,19.59
2022-08-22T20:10:02.665Z,19.47
2022-08-22T20:13:20.819Z,19.50
2022-08-22T20:17:01.459Z,19.54
2022-08-22T20:20:17.511Z,19.57
2022-08-22T20:23:28.882Z,19.63
2022-08-22T20:26:31.684Z,19.63
2022-08-22T20:29:38.017Z,19.62
2022-08-22T20:32:47.377Z,19.57
2022-08-22T20:35:56.093Z,19.54
2022-08-22T20:39:05.833Z,19.46
2022-08-22T20:42:14.398Z,19.48
2022-08-22T20:45:19.703Z,19.46
2022-08-22T20:48:23.788Z,19.52
2022-08-22T20:51:29.017Z,19.52
2022-08-22T20:54:34.781Z,19.58
2022-08-22T20:57:54.895Z,19.49
2022-08-22T21:01:00.147Z,19.57
2022-08-22T21:04:03.875Z,19.45
2022-08-22T21:07:06.009Z,19.60
2022-08-22T21:10:41.374Z,19.56
2022-08-22T21:13:43.654Z,19.48
2022-08-22T21:16:46.065Z,19.54
2022-08-22T21:19:48.797Z,19.56
2022-08-22T21:22:51.670Z,19.43
2022-08-22T21:25:59.246Z,19.36
2022-08-22T21:29:21.356Z,19.32
2022-08-22T21:32:29.903Z,19.36
2022-08-22T21:35:33.309Z,19.33
2022-08-22T21:38:35.561Z,19.24
2022-08-22T21:41:48.623Z,19.21
2022-08-22T21:45:25.747Z,19.16
2022-08-22T21:48:41.035Z,19.10
2022-08-22T21:51:45.898Z,19.09
2022-08-22T21:54:48.308Z,19.05
2022-08-22T21:58:36.155Z,19.11
2022-08-22T22:01:37.167Z,19.18
2022-08-22T22:04:45.070Z,19.20
2022-08-22T22:07:47.753Z,19.28
2022-08-22T22:10:51.288Z,19.37
2022-08-22T22:13:53.461Z,19.43
2022-08-22T22:16:56.002Z,19.35
2022-08-22T22:19:58.122Z,19.28
2022-08-22T22:23:00.566Z,19.33
2022-08-22T22:26:04.886Z,19.40
2022-08-22T22:29:09.116Z,19.34
2022-08-22T22:32:12.573Z,19.43
2022-08-22T22:35:16.294Z,19.44
2022-08-22T22:38:21.962Z,19.40
2022-08-22T22:41:26.513Z,19.44
2022-08-22T22:44:28.675Z,19.42
2022-08-22T22:47:32.696Z,19.44
2022-08-22T22:50:40.428Z,19.37
2022-08-22T22:53:43.779Z,19.28
2022-08-22T22:56:47.981Z,19.26
2022-08-22T22:59:50.603Z,19.31
2022-08-22T23:02:53.317Z,19.48
2022-08-22T23:05:55.712Z,19.39
2022-08-22T23:08:58.486Z,19.41
2022-08-22T23:12:02.903Z,19.34
2022-08-22T23:15:06.985Z,19.38
2022-08-22T23:18:09.480Z,19.37
2022-08-22T23:21:16.166Z,19.37
2022-08-22T23:24:18.617Z,19.44
2022-08-22T23:27:20.735Z,19.60
2022-08-22T23:30:23.187Z,19.58
2022-08-22T23:33:25.345Z,19.57
2022-08-22T23:36:29.535Z,19.56
2022-08-22T23:39:32.279Z,19.56
2022-08-22T23:42:34.974Z,19.56
2022-08-22T23:45:37.171Z,19.44
2022-08-22T23:48:40.114Z,19.36
2022-08-22T23:51:44.335Z,19.35
2022-08-22T23:54:46.782Z,19.27
2022-08-22T23:57:53.575Z,19.35
